sensor_id;sensor_type;location;lat;lon;timestamp;P1;durP1;ratioP1;P2;durP2;ratioP2
11935;SDS011;6027;48.576;9.180;2022-07-29T00:00:10;5.22;;;4.70;;
11935;SDS011;6027;48.576;9.180;2022-07-29T00:02:36;8.40;;;5.03;;
11935;SDS011;6027;48.576;9.180;2022-07-29T00:05:03;5.28;;;4.88;;
11935;SDS011;6027;48.576;9.180;2022-07-29T00:07:29;5.13;;;4.63;;
11935;SDS011;6027;48.576;9.180;2022-07-29T00:09:55;5.30;;;4.90;;
11935;SDS011;6027;48.576;9.180;2022-07-29T00:12:21;4.95;;;4.55;;
11935;SDS011;6027;48.576;9.180;2022-07-29T00:14:48;5.25;;;4.85;;
11935;SDS011;6027;48.576;9.180;2022-07-29T00:17:14;5.32;;;4.93;;
11935;SDS011;6027;48.576;9.180;2022-07-29T00:19:39;5.68;;;5.00;;
11935;SDS011;6027;48.576;9.180;2022-07-29T00:22:05;7.55;;;5.00;;
11935;SDS011;6027;48.576;9.180;2022-07-29T00:24:30;7.82;;;5.60;;
11935;SDS011;6027;48.576;9.180;2022-07-29T00:26:56;7.90;;;4.90;;
11935;SDS011;6027;48.576;9.180;2022-07-29T00:29:21;6.93;;;5.40;;
11935;SDS011;6027;48.576;9.180;2022-07-29T00:31:47;7.25;;;5.25;;
11935;SDS011;6027;48.576;9.180;2022-07-29T00:34:12;5.63;;;5.00;;
11935;SDS011;6027;48.576;9.180;2022-07-29T00:36:56;5.60;;;5.07;;
11935;SDS011;6027;48.576;9.180;2022-07-29T00:39:22;5.00;;;4.63;;
11935;SDS011;6027;48.576;9.180;2022-07-29T00:41:48;5.78;;;5.28;;
11935;SDS011;6027;48.576;9.180;2022-07-29T00:44:14;5.30;;;4.90;;
11935;SDS011;6027;48.576;9.180;2022-07-29T00:46:39;5.35;;;4.90;;
11935;SDS011;6027;48.576;9.180;2022-07-29T00:49:05;5.97;;;5.00;;
11935;SDS011;6027;48.576;9.180;2022-07-29T00:51:32;5.38;;;4.78;;
11935;SDS011;6027;48.576;9.180;2022-07-29T00:54:01;5.00;;;4.50;;
11935;SDS011;6027;48.576;9.180;2022-07-29T00:56:29;5.22;;;4.72;;
11935;SDS011;6027;48.576;9.180;2022-07-29T00:58:56;6.85;;;4.60;;
11935;SDS011;6027;48.576;9.180;2022-07-29T01:01:22;4.80;;;4.40;;
11935;SDS011;6027;48.576;9.180;2022-07-29T01:03:47;5.55;;;5.05;;
11935;SDS011;6027;48.576;9.180;2022-07-29T01:06:13;4.63;;;4.22;;
11935;SDS011;6027;48.576;9.180;2022-07-29T01:08:40;6.28;;;5.10;;
11935;SDS011;6027;48.576;9.180;2022-07-29T01:11:06;6.03;;;4.40;;
11935;SDS011;6027;48.576;9.180;2022-07-29T01:13:31;5.18;;;4.70;;
11935;SDS011;6027;48.576;9.180;2022-07-29T01:15:59;5.15;;;4.63;;
11935;SDS011;6027;48.576;9.180;2022-07-29T01:18:33;5.97;;;4.53;;
11935;SDS011;6027;48.576;9.180;2022-07-29T01:21:15;5.30;;;4.50;;
11935;SDS011;6027;48.576;9.180;2022-07-29T01:32:13;4.72;;;4.32;;
11935;SDS011;6027;48.576;9.180;2022-07-29T01:35:03;6.72;;;4.15;;
11935;SDS011;6027;48.576;9.180;2022-07-29T01:37:42;5.03;;;4.63;;
11935;SDS011;6027;48.576;9.180;2022-07-29T01:40:33;4.20;;;3.88;;
11935;SDS011;6027;48.576;9.180;2022-07-29T01:43:00;5.43;;;4.60;;
11935;SDS011;6027;48.576;9.180;2022-07-29T01:45:40;5.13;;;4.75;;
11935;SDS011;6027;48.576;9.180;2022-07-29T01:48:11;5.90;;;4.60;;
11935;SDS011;6027;48.576;9.180;2022-07-29T01:50:56;5.35;;;4.45;;
11935;SDS011;6027;48.576;9.180;2022-07-29T01:53:29;4.78;;;4.25;;
11935;SDS011;6027;48.576;9.180;2022-07-29T01:56:01;5.00;;;4.50;;
11935;SDS011;6027;48.576;9.180;2022-07-29T01:58:28;4.82;;;4.40;;
11935;SDS011;6027;48.576;9.180;2022-07-29T02:00:57;5.72;;;4.60;;
11935;SDS011;6027;48.576;9.180;2022-07-29T02:03:24;4.68;;;4.28;;
11935;SDS011;6027;48.576;9.180;2022-07-29T02:05:52;5.03;;;4.45;;
11935;SDS011;6027;48.576;9.180;2022-07-29T02:08:18;6.63;;;4.05;;
11935;SDS011;6027;48.576;9.180;2022-07-29T02:10:46;6.38;;;4.55;;
11935;SDS011;6027;48.576;9.180;2022-07-29T02:13:13;5.32;;;4.47;;
11935;SDS011;6027;48.576;9.180;2022-07-29T02:15:42;5.70;;;4.47;;
11935;SDS011;6027;48.576;9.180;2022-07-29T02:18:16;7.20;;;4.70;;
11935;SDS011;6027;48.576;9.180;2022-07-29T02:20:44;4.53;;;4.22;;
11935;SDS011;6027;48.576;9.180;2022-07-29T02:23:14;4.80;;;4.30;;
11935;SDS011;6027;48.576;9.180;2022-07-29T02:25:43;5.07;;;4.57;;
11935;SDS011;6027;48.576;9.180;2022-07-29T02:28:08;6.07;;;4.68;;
11935;SDS011;6027;48.576;9.180;2022-07-29T02:30:39;5.35;;;4.95;;
11935;SDS011;6027;48.576;9.180;2022-07-29T02:33:07;6.35;;;4.75;;
11935;SDS011;6027;48.576;9.180;2022-07-29T02:35:34;5.32;;;4.82;;
11935;SDS011;6027;48.576;9.180;2022-07-29T02:38:01;6.45;;;4.95;;
11935;SDS011;6027;48.576;9.180;2022-07-29T02:40:47;7.13;;;4.90;;
11935;SDS011;6027;48.576;9.180;2022-07-29T02:43:14;5.55;;;5.05;;
11935;SDS011;6027;48.576;9.180;2022-07-29T02:45:42;5.32;;;4.90;;
11935;SDS011;6027;48.576;9.180;2022-07-29T02:48:10;6.68;;;5.47;;
11935;SDS011;6027;48.576;9.180;2022-07-29T02:50:50;5.50;;;4.97;;
11935;SDS011;6027;48.576;9.180;2022-07-29T02:53:24;5.20;;;4.70;;
11935;SDS011;6027;48.576;9.180;2022-07-29T02:56:13;5.18;;;4.78;;
11935;SDS011;6027;48.576;9.180;2022-07-29T02:58:45;5.40;;;4.57;;
11935;SDS011;6027;48.576;9.180;2022-07-29T03:01:15;5.25;;;4.72;;
11935;SDS011;6027;48.576;9.180;2022-07-29T03:03:49;4.82;;;4.45;;
11935;SDS011;6027;48.576;9.180;2022-07-29T03:06:18;5.57;;;5.03;;
11935;SDS011;6027;48.576;9.180;2022-07-29T03:08:46;4.85;;;4.43;;
11935;SDS011;6027;48.576;9.180;2022-07-29T03:11:12;5.35;;;4.85;;
11935;SDS011;6027;48.576;9.180;2022-07-29T03:13:38;6.25;;;4.75;;
11935;SDS011;6027;48.576;9.180;2022-07-29T03:16:04;6.97;;;4.90;;
11935;SDS011;6027;48.576;9.180;2022-07-29T03:18:31;4.88;;;4.57;;
11935;SDS011;6027;48.576;9.180;2022-07-29T03:20:56;5.55;;;4.82;;
11935;SDS011;6027;48.576;9.180;2022-07-29T03:23:22;5.20;;;4.65;;
11935;SDS011;6027;48.576;9.180;2022-07-29T03:25:49;6.45;;;5.00;;
11935;SDS011;6027;48.576;9.180;2022-07-29T03:28:15;5.13;;;4.68;;
11935;SDS011;6027;48.576;9.180;2022-07-29T03:30:40;5.93;;;5.28;;
11935;SDS011;6027;48.576;9.180;2022-07-29T03:33:06;8.80;;;5.57;;
11935;SDS011;6027;48.576;9.180;2022-07-29T03:35:31;5.97;;;4.90;;
11935;SDS011;6027;48.576;9.180;2022-07-29T03:37:57;4.97;;;4.57;;
11935;SDS011;6027;48.576;9.180;2022-07-29T03:40:33;6.88;;;5.53;;
11935;SDS011;6027;48.576;9.180;2022-07-29T03:43:03;6.43;;;4.72;;
11935;SDS011;6027;48.576;9.180;2022-07-29T03:45:32;5.28;;;4.78;;
11935;SDS011;6027;48.576;9.180;2022-07-29T03:48:02;5.25;;;4.85;;
11935;SDS011;6027;48.576;9.180;2022-07-29T03:50:32;4.80;;;4.40;;
11935;SDS011;6027;48.576;9.180;2022-07-29T03:53:00;5.57;;;5.05;;
11935;SDS011;6027;48.576;9.180;2022-07-29T03:55:26;5.38;;;4.65;;
11935;SDS011;6027;48.576;9.180;2022-07-29T03:57:54;5.15;;;4.68;;
11935;SDS011;6027;48.576;9.180;2022-07-29T04:00:22;5.30;;;4.88;;
11935;SDS011;6027;48.576;9.180;2022-07-29T04:02:51;7.35;;;5.20;;
11935;SDS011;6027;48.576;9.180;2022-07-29T04:05:17;6.25;;;4.88;;
11935;SDS011;6027;48.576;9.180;2022-07-29T04:07:44;5.78;;;5.28;;
11935;SDS011;6027;48.576;9.180;2022-07-29T04:10:10;5.80;;;5.22;;
11935;SDS011;6027;48.576;9.180;2022-07-29T04:12:36;5.53;;;5.03;;
11935;SDS011;6027;48.576;9.180;2022-07-29T04:15:05;5.82;;;5.25;;
11935;SDS011;6027;48.576;9.180;2022-07-29T04:17:31;6.28;;;5.10;;
11935;SDS011;6027;48.576;9.180;2022-07-29T04:19:56;7.13;;;5.50;;
11935;SDS011;6027;48.576;9.180;2022-07-29T04:22:22;6.32;;;5.13;;
11935;SDS011;6027;48.576;9.180;2022-07-29T04:24:48;5.45;;;4.95;;
11935;SDS011;6027;48.576;9.180;2022-07-29T04:27:15;5.00;;;4.43;;
11935;SDS011;6027;48.576;9.180;2022-07-29T04:29:47;5.82;;;5.40;;
11935;SDS011;6027;48.576;9.180;2022-07-29T04:32:25;7.00;;;5.15;;
11935;SDS011;6027;48.576;9.180;2022-07-29T04:34:51;6.90;;;5.07;;
11935;SDS011;6027;48.576;9.180;2022-07-29T04:37:16;6.80;;;5.20;;
11935;SDS011;6027;48.576;9.180;2022-07-29T04:39:41;5.53;;;5.00;;
11935;SDS011;6027;48.576;9.180;2022-07-29T04:42:07;4.93;;;4.53;;
11935;SDS011;6027;48.576;9.180;2022-07-29T04:44:33;5.55;;;4.85;;
11935;SDS011;6027;48.576;9.180;2022-07-29T04:46:58;5.65;;;5.18;;
11935;SDS011;6027;48.576;9.180;2022-07-29T04:49:24;5.63;;;5.13;;
11935;SDS011;6027;48.576;9.180;2022-07-29T04:51:49;5.40;;;4.90;;
11935;SDS011;6027;48.576;9.180;2022-07-29T04:54:15;6.55;;;4.93;;
11935;SDS011;6027;48.576;9.180;2022-07-29T04:56:40;8.85;;;4.82;;
11935;SDS011;6027;48.576;9.180;2022-07-29T04:59:07;5.25;;;4.75;;
11935;SDS011;6027;48.576;9.180;2022-07-29T05:01:33;5.35;;;4.70;;
11935;SDS011;6027;48.576;9.180;2022-07-29T05:03:58;6.60;;;4.47;;
11935;SDS011;6027;48.576;9.180;2022-07-29T05:06:24;6.03;;;4.63;;
11935;SDS011;6027;48.576;9.180;2022-07-29T05:08:49;4.63;;;4.22;;
11935;SDS011;6027;48.576;9.180;2022-07-29T05:11:15;5.22;;;4.43;;
11935;SDS011;6027;48.576;9.180;2022-07-29T05:13:40;5.30;;;4.90;;
11935;SDS011;6027;48.576;9.180;2022-07-29T05:16:07;5.25;;;4.75;;
11935;SDS011;6027;48.576;9.180;2022-07-29T05:18:33;5.22;;;4.82;;
11935;SDS011;6027;48.576;9.180;2022-07-29T05:20:58;4.68;;;4.28;;
11935;SDS011;6027;48.576;9.180;2022-07-29T05:23:24;5.40;;;4.95;;
11935;SDS011;6027;48.576;9.180;2022-07-29T05:25:49;7.88;;;4.55;;
11935;SDS011;6027;48.576;9.180;2022-07-29T05:28:15;5.88;;;5.38;;
11935;SDS011;6027;48.576;9.180;2022-07-29T05:30:41;6.35;;;5.05;;
11935;SDS011;6027;48.576;9.180;2022-07-29T05:33:07;5.75;;;5.20;;
11935;SDS011;6027;48.576;9.180;2022-07-29T05:35:32;5.40;;;4.90;;
11935;SDS011;6027;48.576;9.180;2022-07-29T05:38:00;5.50;;;5.00;;
11935;SDS011;6027;48.576;9.180;2022-07-29T05:40:25;6.10;;;4.65;;
11935;SDS011;6027;48.576;9.180;2022-07-29T05:42:51;5.05;;;4.28;;
11935;SDS011;6027;48.576;9.180;2022-07-29T05:45:16;4.30;;;3.67;;
11935;SDS011;6027;48.576;9.180;2022-07-29T05:47:42;3.65;;;3.22;;
11935;SDS011;6027;48.576;9.180;2022-07-29T05:50:07;3.45;;;2.85;;
11935;SDS011;6027;48.576;9.180;2022-07-29T05:52:33;3.45;;;3.15;;
11935;SDS011;6027;48.576;9.180;2022-07-29T05:54:59;3.97;;;3.20;;
11935;SDS011;6027;48.576;9.180;2022-07-29T05:57:27;3.58;;;3.33;;
11935;SDS011;6027;48.576;9.180;2022-07-29T05:59:53;3.47;;;3.22;;
11935;SDS011;6027;48.576;9.180;2022-07-29T06:02:19;4.20;;;3.90;;
11935;SDS011;6027;48.576;9.180;2022-07-29T06:04:44;6.97;;;4.70;;
11935;SDS011;6027;48.576;9.180;2022-07-29T06:07:10;5.95;;;4.25;;
11935;SDS011;6027;48.576;9.180;2022-07-29T06:09:36;5.15;;;3.85;;
11935;SDS011;6027;48.576;9.180;2022-07-29T06:12:01;4.70;;;4.00;;
11935;SDS011;6027;48.576;9.180;2022-07-29T06:14:27;4.65;;;4.25;;
11935;SDS011;6027;48.576;9.180;2022-07-29T06:16:53;4.32;;;3.78;;
11935;SDS011;6027;48.576;9.180;2022-07-29T06:19:19;4.28;;;3.92;;
11935;SDS011;6027;48.576;9.180;2022-07-29T06:21:45;4.50;;;4.10;;
11935;SDS011;6027;48.576;9.180;2022-07-29T06:24:12;5.13;;;3.85;;
11935;SDS011;6027;48.576;9.180;2022-07-29T06:26:41;4.35;;;3.50;;
11935;SDS011;6027;48.576;9.180;2022-07-29T06:29:07;4.93;;;3.95;;
11935;SDS011;6027;48.576;9.180;2022-07-29T06:31:35;4.22;;;3.83;;
11935;SDS011;6027;48.576;9.180;2022-07-29T06:34:01;3.67;;;3.40;;
11935;SDS011;6027;48.576;9.180;2022-07-29T06:36:27;3.80;;;3.60;;
11935;SDS011;6027;48.576;9.180;2022-07-29T06:38:52;4.13;;;3.70;;
11935;SDS011;6027;48.576;9.180;2022-07-29T06:41:18;4.78;;;3.67;;
11935;SDS011;6027;48.576;9.180;2022-07-29T06:43:44;4.25;;;3.95;;
11935;SDS011;6027;48.576;9.180;2022-07-29T06:46:11;4.18;;;3.78;;
11935;SDS011;6027;48.576;9.180;2022-07-29T06:48:39;4.07;;;3.78;;
11935;SDS011;6027;48.576;9.180;2022-07-29T06:51:07;4.28;;;3.88;;
11935;SDS011;6027;48.576;9.180;2022-07-29T06:53:33;4.70;;;3.88;;
11935;SDS011;6027;48.576;9.180;2022-07-29T06:56:00;5.22;;;3.85;;
11935;SDS011;6027;48.576;9.180;2022-07-29T06:58:27;6.15;;;3.60;;
11935;SDS011;6027;48.576;9.180;2022-07-29T07:00:53;6.57;;;3.70;;
11935;SDS011;6027;48.576;9.180;2022-07-29T07:03:18;7.80;;;3.80;;
11935;SDS011;6027;48.576;9.180;2022-07-29T07:05:44;5.95;;;3.88;;
11935;SDS011;6027;48.576;9.180;2022-07-29T07:08:12;5.03;;;3.97;;
11935;SDS011;6027;48.576;9.180;2022-07-29T07:10:38;5.85;;;4.40;;
11935;SDS011;6027;48.576;9.180;2022-07-29T07:13:05;4.97;;;4.10;;
11935;SDS011;6027;48.576;9.180;2022-07-29T07:15:30;4.43;;;4.10;;
11935;SDS011;6027;48.576;9.180;2022-07-29T07:17:56;4.03;;;3.63;;
11935;SDS011;6027;48.576;9.180;2022-07-29T07:20:22;5.22;;;3.80;;
11935;SDS011;6027;48.576;9.180;2022-07-29T07:22:48;4.63;;;4.00;;
11935;SDS011;6027;48.576;9.180;2022-07-29T07:25:14;4.13;;;3.72;;
11935;SDS011;6027;48.576;9.180;2022-07-29T07:27:39;4.13;;;3.65;;
11935;SDS011;6027;48.576;9.180;2022-07-29T07:30:05;4.15;;;3.72;;
11935;SDS011;6027;48.576;9.180;2022-07-29T07:32:35;4.03;;;3.72;;
11935;SDS011;6027;48.576;9.180;2022-07-29T07:35:00;3.72;;;3.40;;
11935;SDS011;6027;48.576;9.180;2022-07-29T07:37:26;3.90;;;3.42;;
11935;SDS011;6027;48.576;9.180;2022-07-29T07:39:52;3.90;;;3.60;;
11935;SDS011;6027;48.576;9.180;2022-07-29T07:42:18;4.85;;;3.55;;
11935;SDS011;6027;48.576;9.180;2022-07-29T07:44:44;4.05;;;3.65;;
11935;SDS011;6027;48.576;9.180;2022-07-29T07:47:11;5.38;;;3.53;;
11935;SDS011;6027;48.576;9.180;2022-07-29T07:49:37;4.53;;;3.95;;
11935;SDS011;6027;48.576;9.180;2022-07-29T07:52:03;4.00;;;3.70;;
11935;SDS011;6027;48.576;9.180;2022-07-29T07:54:29;3.90;;;3.50;;
11935;SDS011;6027;48.576;9.180;2022-07-29T07:56:54;6.05;;;3.65;;
11935;SDS011;6027;48.576;9.180;2022-07-29T07:59:20;4.75;;;3.60;;
11935;SDS011;6027;48.576;9.180;2022-07-29T08:01:45;4.10;;;3.45;;
11935;SDS011;6027;48.576;9.180;2022-07-29T08:04:11;6.35;;;3.92;;
11935;SDS011;6027;48.576;9.180;2022-07-29T08:06:36;5.82;;;3.88;;
11935;SDS011;6027;48.576;9.180;2022-07-29T08:09:03;4.07;;;3.47;;
11935;SDS011;6027;48.576;9.180;2022-07-29T08:11:29;4.10;;;3.40;;
11935;SDS011;6027;48.576;9.180;2022-07-29T08:13:55;5.88;;;3.50;;
11935;SDS011;6027;48.576;9.180;2022-07-29T08:16:21;7.43;;;3.60;;
11935;SDS011;6027;48.576;9.180;2022-07-29T08:18:47;4.00;;;3.70;;
11935;SDS011;6027;48.576;9.180;2022-07-29T08:21:13;5.13;;;3.65;;
11935;SDS011;6027;48.576;9.180;2022-07-29T08:23:40;5.28;;;3.70;;
11935;SDS011;6027;48.576;9.180;2022-07-29T08:26:11;4.28;;;3.42;;
11935;SDS011;6027;48.576;9.180;2022-07-29T08:28:38;4.75;;;3.67;;
11935;SDS011;6027;48.576;9.180;2022-07-29T08:31:04;4.30;;;3.78;;
11935;SDS011;6027;48.576;9.180;2022-07-29T08:33:30;5.85;;;3.75;;
11935;SDS011;6027;48.576;9.180;2022-07-29T08:35:55;4.32;;;3.92;;
11935;SDS011;6027;48.576;9.180;2022-07-29T08:38:21;5.07;;;4.28;;
11935;SDS011;6027;48.576;9.180;2022-07-29T08:40:47;3.70;;;3.40;;
11935;SDS011;6027;48.576;9.180;2022-07-29T08:43:13;5.75;;;4.03;;
11935;SDS011;6027;48.576;9.180;2022-07-29T08:48:10;4.57;;;3.60;;
11935;SDS011;6027;48.576;9.180;2022-07-29T08:50:37;3.80;;;3.50;;
11935;SDS011;6027;48.576;9.180;2022-07-29T08:53:03;4.47;;;3.90;;
11935;SDS011;6027;48.576;9.180;2022-07-29T08:55:29;7.07;;;3.55;;
11935;SDS011;6027;48.576;9.180;2022-07-29T08:57:55;7.18;;;3.63;;
11935;SDS011;6027;48.576;9.180;2022-07-29T09:00:22;4.40;;;4.00;;
11935;SDS011;6027;48.576;9.180;2022-07-29T09:02:50;6.03;;;4.30;;
11935;SDS011;6027;48.576;9.180;2022-07-29T09:05:21;4.13;;;3.38;;
11935;SDS011;6027;48.576;9.180;2022-07-29T09:07:49;4.72;;;3.40;;
11935;SDS011;6027;48.576;9.180;2022-07-29T09:10:15;3.75;;;3.42;;
11935;SDS011;6027;48.576;9.180;2022-07-29T09:12:41;5.65;;;3.70;;
11935;SDS011;6027;48.576;9.180;2022-07-29T09:15:06;4.25;;;3.85;;
11935;SDS011;6027;48.576;9.180;2022-07-29T09:17:39;5.53;;;3.60;;
11935;SDS011;6027;48.576;9.180;2022-07-29T09:20:10;4.78;;;3.40;;
11935;SDS011;6027;48.576;9.180;2022-07-29T09:22:37;3.70;;;3.40;;
11935;SDS011;6027;48.576;9.180;2022-07-29T09:25:02;4.05;;;3.58;;
11935;SDS011;6027;48.576;9.180;2022-07-29T09:27:28;4.72;;;4.00;;
11935;SDS011;6027;48.576;9.180;2022-07-29T09:32:54;6.72;;;3.60;;
11935;SDS011;6027;48.576;9.180;2022-07-29T09:35:22;9.98;;;3.75;;
11935;SDS011;6027;48.576;9.180;2022-07-29T09:37:49;5.40;;;3.58;;
11935;SDS011;6027;48.576;9.180;2022-07-29T09:40:19;4.00;;;3.70;;
11935;SDS011;6027;48.576;9.180;2022-07-29T09:42:50;10.73;;;4.15;;
11935;SDS011;6027;48.576;9.180;2022-07-29T09:45:29;5.18;;;3.40;;
11935;SDS011;6027;48.576;9.180;2022-07-29T09:47:56;7.82;;;3.78;;
11935;SDS011;6027;48.576;9.180;2022-07-29T09:50:44;5.28;;;3.58;;
11935;SDS011;6027;48.576;9.180;2022-07-29T09:53:12;6.55;;;3.53;;
11935;SDS011;6027;48.576;9.180;2022-07-29T09:55:55;5.28;;;3.50;;
11935;SDS011;6027;48.576;9.180;2022-07-29T09:58:21;5.97;;;3.60;;
11935;SDS011;6027;48.576;9.180;2022-07-29T10:00:48;4.40;;;3.53;;
11935;SDS011;6027;48.576;9.180;2022-07-29T10:03:15;5.18;;;3.45;;
11935;SDS011;6027;48.576;9.180;2022-07-29T10:05:41;3.90;;;3.30;;
11935;SDS011;6027;48.576;9.180;2022-07-29T10:08:07;5.28;;;3.33;;
11935;SDS011;6027;48.576;9.180;2022-07-29T10:10:37;7.53;;;3.60;;
11935;SDS011;6027;48.576;9.180;2022-07-29T10:13:05;8.32;;;3.55;;
11935;SDS011;6027;48.576;9.180;2022-07-29T10:15:36;5.95;;;3.33;;
11935;SDS011;6027;48.576;9.180;2022-07-29T10:18:09;4.35;;;3.40;;
11935;SDS011;6027;48.576;9.180;2022-07-29T10:20:36;3.95;;;3.20;;
11935;SDS011;6027;48.576;9.180;2022-07-29T10:23:09;4.47;;;3.95;;
11935;SDS011;6027;48.576;9.180;2022-07-29T10:25:35;4.88;;;3.58;;
11935;SDS011;6027;48.576;9.180;2022-07-29T10:28:00;5.65;;;3.08;;
11935;SDS011;6027;48.576;9.180;2022-07-29T10:30:26;4.10;;;3.70;;
11935;SDS011;6027;48.576;9.180;2022-07-29T10:44:14;3.63;;;3.05;;
11935;SDS011;6027;48.576;9.180;2022-07-29T10:46:42;11.07;;;3.42;;
11935;SDS011;6027;48.576;9.180;2022-07-29T10:49:21;5.15;;;2.70;;
11935;SDS011;6027;48.576;9.180;2022-07-29T10:52:24;3.80;;;2.90;;
11935;SDS011;6027;48.576;9.180;2022-07-29T10:54:47;7.43;;;2.83;;
11935;SDS011;6027;48.576;9.180;2022-07-29T11:07:34;5.53;;;3.03;;
11935;SDS011;6027;48.576;9.180;2022-07-29T11:22:55;3.92;;;2.70;;
11935;SDS011;6027;48.576;9.180;2022-07-29T11:25:21;4.97;;;2.90;;
11935;SDS011;6027;48.576;9.180;2022-07-29T11:27:46;5.57;;;2.78;;
11935;SDS011;6027;48.576;9.180;2022-07-29T11:30:12;3.50;;;2.83;;
11935;SDS011;6027;48.576;9.180;2022-07-29T11:32:39;7.13;;;3.28;;
11935;SDS011;6027;48.576;9.180;2022-07-29T11:35:17;5.50;;;3.00;;
11935;SDS011;6027;48.576;9.180;2022-07-29T11:43:52;5.70;;;2.72;;
11935;SDS011;6027;48.576;9.180;2022-07-29T11:49:20;8.30;;;2.95;;
11935;SDS011;6027;48.576;9.180;2022-07-29T11:51:51;8.70;;;3.08;;
11935;SDS011;6027;48.576;9.180;2022-07-29T11:54:24;6.82;;;3.45;;
11935;SDS011;6027;48.576;9.180;2022-07-29T11:56:51;6.30;;;3.30;;
11935;SDS011;6027;48.576;9.180;2022-07-29T11:59:18;3.65;;;3.00;;
11935;SDS011;6027;48.576;9.180;2022-07-29T12:01:54;4.70;;;2.80;;
11935;SDS011;6027;48.576;9.180;2022-07-29T12:04:20;4.25;;;2.85;;
11935;SDS011;6027;48.576;9.180;2022-07-29T12:06:54;4.22;;;3.10;;
11935;SDS011;6027;48.576;9.180;2022-07-29T12:09:21;7.50;;;3.67;;
11935;SDS011;6027;48.576;9.180;2022-07-29T12:11:49;6.53;;;3.50;;
11935;SDS011;6027;48.576;9.180;2022-07-29T12:14:25;3.88;;;3.25;;
11935;SDS011;6027;48.576;9.180;2022-07-29T12:16:52;5.03;;;3.60;;
11935;SDS011;6027;48.576;9.180;2022-07-29T12:19:18;4.85;;;3.30;;
11935;SDS011;6027;48.576;9.180;2022-07-29T12:24:10;4.03;;;2.95;;
11935;SDS011;6027;48.576;9.180;2022-07-29T12:26:36;3.45;;;2.55;;
11935;SDS011;6027;48.576;9.180;2022-07-29T12:29:01;3.28;;;2.50;;
11935;SDS011;6027;48.576;9.180;2022-07-29T12:31:27;3.70;;;2.50;;
11935;SDS011;6027;48.576;9.180;2022-07-29T12:33:53;3.67;;;2.50;;
11935;SDS011;6027;48.576;9.180;2022-07-29T12:36:19;5.32;;;2.80;;
11935;SDS011;6027;48.576;9.180;2022-07-29T12:38:44;4.07;;;2.72;;
11935;SDS011;6027;48.576;9.180;2022-07-29T12:41:11;2.88;;;2.30;;
11935;SDS011;6027;48.576;9.180;2022-07-29T12:43:37;3.40;;;2.55;;
11935;SDS011;6027;48.576;9.180;2022-07-29T12:46:13;4.50;;;2.42;;
11935;SDS011;6027;48.576;9.180;2022-07-29T12:48:40;4.13;;;2.33;;
11935;SDS011;6027;48.576;9.180;2022-07-29T12:51:07;2.70;;;2.40;;
11935;SDS011;6027;48.576;9.180;2022-07-29T12:53:34;2.83;;;2.50;;
11935;SDS011;6027;48.576;9.180;2022-07-29T12:56:00;7.38;;;3.17;;
11935;SDS011;6027;48.576;9.180;2022-07-29T12:58:40;3.50;;;2.45;;
11935;SDS011;6027;48.576;9.180;2022-07-29T13:01:14;3.72;;;2.30;;
11935;SDS011;6027;48.576;9.180;2022-07-29T13:03:52;4.97;;;2.72;;
11935;SDS011;6027;48.576;9.180;2022-07-29T13:11:46;2.45;;;2.25;;
11935;SDS011;6027;48.576;9.180;2022-07-29T13:14:14;6.30;;;2.28;;
11935;SDS011;6027;48.576;9.180;2022-07-29T13:17:15;3.63;;;2.50;;
11935;SDS011;6027;48.576;9.180;2022-07-29T13:22:18;2.97;;;2.45;;
11935;SDS011;6027;48.576;9.180;2022-07-29T13:27:29;2.50;;;2.17;;
11935;SDS011;6027;48.576;9.180;2022-07-29T13:29:57;3.25;;;2.30;;
11935;SDS011;6027;48.576;9.180;2022-07-29T13:32:25;8.93;;;3.42;;
11935;SDS011;6027;48.576;9.180;2022-07-29T13:34:52;8.75;;;4.07;;
11935;SDS011;6027;48.576;9.180;2022-07-29T13:37:18;10.93;;;5.10;;
11935;SDS011;6027;48.576;9.180;2022-07-29T13:39:44;3.78;;;3.13;;
11935;SDS011;6027;48.576;9.180;2022-07-29T13:42:09;4.55;;;3.20;;
11935;SDS011;6027;48.576;9.180;2022-07-29T13:44:38;4.03;;;3.20;;
11935;SDS011;6027;48.576;9.180;2022-07-29T13:47:04;4.80;;;3.50;;
11935;SDS011;6027;48.576;9.180;2022-07-29T13:49:30;4.43;;;3.67;;
11935;SDS011;6027;48.576;9.180;2022-07-29T13:51:55;6.15;;;4.10;;
11935;SDS011;6027;48.576;9.180;2022-07-29T13:54:21;4.35;;;3.75;;
11935;SDS011;6027;48.576;9.180;2022-07-29T13:56:46;9.02;;;4.13;;
11935;SDS011;6027;48.576;9.180;2022-07-29T13:59:12;5.40;;;3.88;;
11935;SDS011;6027;48.576;9.180;2022-07-29T14:01:38;5.50;;;3.80;;
11935;SDS011;6027;48.576;9.180;2022-07-29T14:04:06;4.30;;;3.50;;
11935;SDS011;6027;48.576;9.180;2022-07-29T14:06:33;4.35;;;3.95;;
11935;SDS011;6027;48.576;9.180;2022-07-29T14:08:58;6.38;;;3.60;;
11935;SDS011;6027;48.576;9.180;2022-07-29T14:11:24;3.97;;;3.63;;
11935;SDS011;6027;48.576;9.180;2022-07-29T14:13:49;3.75;;;3.40;;
11935;SDS011;6027;48.576;9.180;2022-07-29T14:16:15;4.78;;;3.58;;
11935;SDS011;6027;48.576;9.180;2022-07-29T14:18:40;5.32;;;3.80;;
11935;SDS011;6027;48.576;9.180;2022-07-29T14:21:06;4.10;;;3.70;;
11935;SDS011;6027;48.576;9.180;2022-07-29T14:23:31;4.03;;;3.33;;
11935;SDS011;6027;48.576;9.180;2022-07-29T14:25:57;4.20;;;3.13;;
11935;SDS011;6027;48.576;9.180;2022-07-29T14:28:22;3.70;;;3.40;;
11935;SDS011;6027;48.576;9.180;2022-07-29T14:30:48;3.65;;;3.33;;
11935;SDS011;6027;48.576;9.180;2022-07-29T14:33:13;3.95;;;3.55;;
11935;SDS011;6027;48.576;9.180;2022-07-29T14:35:39;4.60;;;4.20;;
11935;SDS011;6027;48.576;9.180;2022-07-29T14:38:04;4.43;;;4.03;;
11935;SDS011;6027;48.576;9.180;2022-07-29T14:40:30;4.35;;;3.80;;
11935;SDS011;6027;48.576;9.180;2022-07-29T14:42:55;4.13;;;3.70;;
11935;SDS011;6027;48.576;9.180;2022-07-29T14:45:21;7.05;;;4.22;;
11935;SDS011;6027;48.576;9.180;2022-07-29T14:47:46;6.72;;;3.88;;
11935;SDS011;6027;48.576;9.180;2022-07-29T14:50:11;5.45;;;3.90;;
11935;SDS011;6027;48.576;9.180;2022-07-29T14:52:38;6.25;;;4.13;;
11935;SDS011;6027;48.576;9.180;2022-07-29T14:55:04;3.60;;;3.30;;
11935;SDS011;6027;48.576;9.180;2022-07-29T14:57:30;3.92;;;3.47;;
11935;SDS011;6027;48.576;9.180;2022-07-29T14:59:56;3.70;;;3.40;;
11935;SDS011;6027;48.576;9.180;2022-07-29T15:02:21;4.95;;;3.80;;
11935;SDS011;6027;48.576;9.180;2022-07-29T15:04:46;4.05;;;3.47;;
11935;SDS011;6027;48.576;9.180;2022-07-29T15:07:13;5.15;;;3.83;;
11935;SDS011;6027;48.576;9.180;2022-07-29T15:09:39;5.78;;;3.65;;
11935;SDS011;6027;48.576;9.180;2022-07-29T15:12:04;5.15;;;3.55;;
11935;SDS011;6027;48.576;9.180;2022-07-29T15:14:30;3.92;;;3.17;;
11935;SDS011;6027;48.576;9.180;2022-07-29T15:16:56;3.97;;;3.50;;
11935;SDS011;6027;48.576;9.180;2022-07-29T15:19:22;6.13;;;3.30;;
11935;SDS011;6027;48.576;9.180;2022-07-29T15:21:48;4.43;;;3.45;;
11935;SDS011;6027;48.576;9.180;2022-07-29T15:24:13;3.45;;;3.15;;
11935;SDS011;6027;48.576;9.180;2022-07-29T15:26:39;3.38;;;3.08;;
11935;SDS011;6027;48.576;9.180;2022-07-29T15:29:05;4.38;;;3.40;;
11935;SDS011;6027;48.576;9.180;2022-07-29T15:31:30;4.13;;;3.20;;
11935;SDS011;6027;48.576;9.180;2022-07-29T15:33:56;3.88;;;3.28;;
11935;SDS011;6027;48.576;9.180;2022-07-29T15:36:21;6.25;;;3.30;;
11935;SDS011;6027;48.576;9.180;2022-07-29T15:38:46;3.63;;;3.33;;
11935;SDS011;6027;48.576;9.180;2022-07-29T15:41:15;6.20;;;2.80;;
11935;SDS011;6027;48.576;9.180;2022-07-29T15:43:44;5.00;;;3.03;;
11935;SDS011;6027;48.576;9.180;2022-07-29T15:46:13;3.50;;;3.20;;
11935;SDS011;6027;48.576;9.180;2022-07-29T15:48:58;4.35;;;3.22;;
11935;SDS011;6027;48.576;9.180;2022-07-29T15:51:24;6.50;;;3.70;;
11935;SDS011;6027;48.576;9.180;2022-07-29T15:53:50;5.57;;;3.67;;
11935;SDS011;6027;48.576;9.180;2022-07-29T15:56:15;4.00;;;3.60;;
11935;SDS011;6027;48.576;9.180;2022-07-29T15:58:41;7.57;;;3.58;;
11935;SDS011;6027;48.576;9.180;2022-07-29T16:01:07;6.03;;;3.58;;
11935;SDS011;6027;48.576;9.180;2022-07-29T16:03:32;7.05;;;3.55;;
11935;SDS011;6027;48.576;9.180;2022-07-29T16:05:58;4.95;;;3.28;;
11935;SDS011;6027;48.576;9.180;2022-07-29T16:08:23;3.47;;;3.20;;
11935;SDS011;6027;48.576;9.180;2022-07-29T16:10:49;5.82;;;3.67;;
11935;SDS011;6027;48.576;9.180;2022-07-29T16:13:14;4.95;;;3.40;;